sensor_id;sensor_type;location;lat;lon;timestamp;temperature;humidity
64997;SHT31;51545;51.568;6.998;2023-06-24T00:00:26;17.16;92.21
64997;SHT31;51545;51.568;6.998;2023-06-24T00:02:53;17.22;92.24
64997;SHT31;51545;51.568;6.998;2023-06-24T00:05:19;17.22;91.69
64997;SHT31;51545;51.568;6.998;2023-06-24T00:07:44;17.16;91.84
64997;SHT31;51545;51.568;6.998;2023-06-24T00:10:14;17.11;92.52
64997;SHT31;51545;51.568;6.998;2023-06-24T00:12:40;17.06;92.21
64997;SHT31;51545;51.568;6.998;2023-06-24T00:15:06;17.08;92.62
64997;SHT31;51545;51.568;6.998;2023-06-24T00:17:34;17.06;92.96
64997;SHT31;51545;51.568;6.998;2023-06-24T00:20:00;17.11;92.74
64997;SHT31;51545;51.568;6.998;2023-06-24T00:22:25;16.92;92.92
64997;SHT31;51545;51.568;6.998;2023-06-24T00:24:51;16.92;93.04
64997;SHT31;51545;51.568;6.998;2023-06-24T00:27:16;16.97;92.59
64997;SHT31;51545;51.568;6.998;2023-06-24T00:29:42;16.97;93.15
64997;SHT31;51545;51.568;6.998;2023-06-24T00:32:07;16.89;93.29
64997;SHT31;51545;51.568;6.998;2023-06-24T00:34:34;16.84;93.89
64997;SHT31;51545;51.568;6.998;2023-06-24T00:36:59;16.89;93.37
64997;SHT31;51545;51.568;6.998;2023-06-24T00:39:27;16.83;93.28
64997;SHT31;51545;51.568;6.998;2023-06-24T00:41:52;16.78;93.37
64997;SHT31;51545;51.568;6.998;2023-06-24T00:44:18;16.78;94.02
64997;SHT31;51545;51.568;6.998;2023-06-24T00:46:44;16.77;94.35
64997;SHT31;51545;51.568;6.998;2023-06-24T00:49:10;16.71;93.96
64997;SHT31;51545;51.568;6.998;2023-06-24T00:51:38;16.61;94.18
64997;SHT31;51545;51.568;6.998;2023-06-24T00:54:05;16.65;94.20
64997;SHT31;51545;51.568;6.998;2023-06-24T00:56:34;16.67;94.10
64997;SHT31;51545;51.568;6.998;2023-06-24T00:59:03;16.67;93.93
64997;SHT31;51545;51.568;6.998;2023-06-24T01:01:34;16.65;94.33
64997;SHT31;51545;51.568;6.998;2023-06-24T01:04:03;16.72;94.14
64997;SHT31;51545;51.568;6.998;2023-06-24T01:06:29;16.74;93.95
64997;SHT31;51545;51.568;6.998;2023-06-24T01:08:56;16.72;93.59
64997;SHT31;51545;51.568;6.998;2023-06-24T01:11:28;16.63;93.68
64997;SHT31;51545;51.568;6.998;2023-06-24T01:13:55;16.57;93.68
64997;SHT31;51545;51.568;6.998;2023-06-24T01:16:25;16.49;94.34
64997;SHT31;51545;51.568;6.998;2023-06-24T01:18:59;16.49;93.97
64997;SHT31;51545;51.568;6.998;2023-06-24T01:24:22;16.44;94.10
64997;SHT31;51545;51.568;6.998;2023-06-24T01:32:16;16.35;94.43
64997;SHT31;51545;51.568;6.998;2023-06-24T01:35:00;16.43;94.31
64997;SHT31;51545;51.568;6.998;2023-06-24T01:37:35;16.37;94.20
64997;SHT31;51545;51.568;6.998;2023-06-24T01:40:30;16.28;94.54
64997;SHT31;51545;51.568;6.998;2023-06-24T01:43:05;16.35;94.69
64997;SHT31;51545;51.568;6.998;2023-06-24T01:45:37;16.30;94.59
64997;SHT31;51545;51.568;6.998;2023-06-24T01:48:18;16.30;95.23
64997;SHT31;51545;51.568;6.998;2023-06-24T01:50:51;16.32;95.32
64997;SHT31;51545;51.568;6.998;2023-06-24T01:53:24;16.28;94.96
64997;SHT31;51545;51.568;6.998;2023-06-24T01:55:53;16.25;95.39
64997;SHT31;51545;51.568;6.998;2023-06-24T01:58:22;16.28;95.66
64997;SHT31;51545;51.568;6.998;2023-06-24T02:00:48;16.28;96.16
64997;SHT31;51545;51.568;6.998;2023-06-24T02:03:14;16.28;96.00
64997;SHT31;51545;51.568;6.998;2023-06-24T02:05:41;16.26;95.57
64997;SHT31;51545;51.568;6.998;2023-06-24T02:08:08;16.30;95.43
64997;SHT31;51545;51.568;6.998;2023-06-24T02:10:38;16.30;95.41
64997;SHT31;51545;51.568;6.998;2023-06-24T02:13:05;16.33;95.37
64997;SHT31;51545;51.568;6.998;2023-06-24T02:15:34;16.29;95.78
64997;SHT31;51545;51.568;6.998;2023-06-24T02:18:01;16.26;95.52
64997;SHT31;51545;51.568;6.998;2023-06-24T02:20:30;16.26;95.37
64997;SHT31;51545;51.568;6.998;2023-06-24T02:22:56;16.24;95.56
64997;SHT31;51545;51.568;6.998;2023-06-24T02:25:24;16.22;95.90
64997;SHT31;51545;51.568;6.998;2023-06-24T02:27:52;16.19;95.86
64997;SHT31;51545;51.568;6.998;2023-06-24T02:30:19;16.33;96.00
64997;SHT31;51545;51.568;6.998;2023-06-24T02:32:45;16.33;95.85
64997;SHT31;51545;51.568;6.998;2023-06-24T02:35:11;16.22;95.67
64997;SHT31;51545;51.568;6.998;2023-06-24T02:37:37;16.16;95.87
64997;SHT31;51545;51.568;6.998;2023-06-24T02:40:02;16.14;96.00
64997;SHT31;51545;51.568;6.998;2023-06-24T02:42:30;16.09;96.18
64997;SHT31;51545;51.568;6.998;2023-06-24T02:44:56;16.11;96.15
64997;SHT31;51545;51.568;6.998;2023-06-24T02:47:22;16.11;96.05
64997;SHT31;51545;51.568;6.998;2023-06-24T02:49:49;16.04;96.08
64997;SHT31;51545;51.568;6.998;2023-06-24T02:52:16;16.04;96.13
64997;SHT31;51545;51.568;6.998;2023-06-24T02:54:42;16.01;96.09
64997;SHT31;51545;51.568;6.998;2023-06-24T02:57:09;16.05;96.70
64997;SHT31;51545;51.568;6.998;2023-06-24T02:59:35;16.08;96.89
64997;SHT31;51545;51.568;6.998;2023-06-24T03:02:02;16.08;96.95
64997;SHT31;51545;51.568;6.998;2023-06-24T03:04:29;16.21;96.93
64997;SHT31;51545;51.568;6.998;2023-06-24T03:06:56;16.16;96.90
64997;SHT31;51545;51.568;6.998;2023-06-24T03:09:24;16.26;97.12
64997;SHT31;51545;51.568;6.998;2023-06-24T03:11:50;16.29;97.03
64997;SHT31;51545;51.568;6.998;2023-06-24T03:14:15;16.29;97.02
64997;SHT31;51545;51.568;6.998;2023-06-24T03:16:41;16.35;97.18
64997;SHT31;51545;51.568;6.998;2023-06-24T03:19:07;16.36;97.20
64997;SHT31;51545;51.568;6.998;2023-06-24T03:21:33;16.46;97.41
64997;SHT31;51545;51.568;6.998;2023-06-24T03:23:58;16.47;97.26
64997;SHT31;51545;51.568;6.998;2023-06-24T03:26:30;16.54;97.32
64997;SHT31;51545;51.568;6.998;2023-06-24T03:28:58;16.59;97.17
64997;SHT31;51545;51.568;6.998;2023-06-24T03:31:23;16.60;97.38
64997;SHT31;51545;51.568;6.998;2023-06-24T03:33:49;16.67;97.09
64997;SHT31;51545;51.568;6.998;2023-06-24T03:36:14;16.68;96.75
64997;SHT31;51545;51.568;6.998;2023-06-24T03:38:40;16.65;96.55
64997;SHT31;51545;51.568;6.998;2023-06-24T03:41:05;16.75;96.61
64997;SHT31;51545;51.568;6.998;2023-06-24T03:43:31;16.64;95.99
64997;SHT31;51545;51.568;6.998;2023-06-24T03:45:56;16.56;96.13
64997;SHT31;51545;51.568;6.998;2023-06-24T03:48:22;16.57;96.15
64997;SHT31;51545;51.568;6.998;2023-06-24T03:50:47;16.59;95.94
64997;SHT31;51545;51.568;6.998;2023-06-24T03:53:13;16.59;96.08
64997;SHT31;51545;51.568;6.998;2023-06-24T03:55:38;16.56;96.05
64997;SHT31;51545;51.568;6.998;2023-06-24T03:58:04;16.57;96.13
64997;SHT31;51545;51.568;6.998;2023-06-24T04:00:29;16.56;96.08
64997;SHT31;51545;51.568;6.998;2023-06-24T04:02:55;16.59;96.03
64997;SHT31;51545;51.568;6.998;2023-06-24T04:05:20;16.57;95.94
64997;SHT31;51545;51.568;6.998;2023-06-24T04:07:46;16.61;96.00
64997;SHT31;51545;51.568;6.998;2023-06-24T04:10:12;16.63;96.39
64997;SHT31;51545;51.568;6.998;2023-06-24T04:12:38;16.71;96.33
64997;SHT31;51545;51.568;6.998;2023-06-24T04:15:03;16.68;95.63
64997;SHT31;51545;51.568;6.998;2023-06-24T04:17:30;16.85;94.51
64997;SHT31;51545;51.568;6.998;2023-06-24T04:19:56;16.99;95.22
64997;SHT31;51545;51.568;6.998;2023-06-24T04:22:22;17.08;94.81
64997;SHT31;51545;51.568;6.998;2023-06-24T04:24:48;17.14;94.47
64997;SHT31;51545;51.568;6.998;2023-06-24T04:27:13;17.15;93.47
64997;SHT31;51545;51.568;6.998;2023-06-24T04:29:39;17.29;93.95
64997;SHT31;51545;51.568;6.998;2023-06-24T04:32:04;17.33;94.40
64997;SHT31;51545;51.568;6.998;2023-06-24T04:34:30;17.49;93.08
64997;SHT31;51545;51.568;6.998;2023-06-24T04:36:57;17.57;93.93
64997;SHT31;51545;51.568;6.998;2023-06-24T04:39:23;17.57;93.85
64997;SHT31;51545;51.568;6.998;2023-06-24T04:41:48;17.58;93.51
64997;SHT31;51545;51.568;6.998;2023-06-24T04:44:14;17.67;93.55
64997;SHT31;51545;51.568;6.998;2023-06-24T04:46:39;17.71;93.97
64997;SHT31;51545;51.568;6.998;2023-06-24T04:49:05;17.63;91.44
64997;SHT31;51545;51.568;6.998;2023-06-24T04:51:31;17.64;91.65
64997;SHT31;51545;51.568;6.998;2023-06-24T04:53:57;17.67;93.16
64997;SHT31;51545;51.568;6.998;2023-06-24T04:56:23;17.61;92.37
64997;SHT31;51545;51.568;6.998;2023-06-24T04:58:49;17.73;92.82
64997;SHT31;51545;51.568;6.998;2023-06-24T05:01:15;17.71;92.36
64997;SHT31;51545;51.568;6.998;2023-06-24T05:03:40;17.82;91.32
64997;SHT31;51545;51.568;6.998;2023-06-24T05:06:06;17.98;90.70
64997;SHT31;51545;51.568;6.998;2023-06-24T05:08:31;18.05;89.83
64997;SHT31;51545;51.568;6.998;2023-06-24T05:10:57;18.16;89.73
64997;SHT31;51545;51.568;6.998;2023-06-24T05:13:22;18.25;89.96
64997;SHT31;51545;51.568;6.998;2023-06-24T05:15:48;18.26;88.41
64997;SHT31;51545;51.568;6.998;2023-06-24T05:18:13;18.30;89.32
64997;SHT31;51545;51.568;6.998;2023-06-24T05:20:39;18.30;89.09
64997;SHT31;51545;51.568;6.998;2023-06-24T05:23:05;18.44;91.07
64997;SHT31;51545;51.568;6.998;2023-06-24T05:25:30;18.47;91.24
64997;SHT31;51545;51.568;6.998;2023-06-24T05:27:56;18.32;88.77
64997;SHT31;51545;51.568;6.998;2023-06-24T05:30:22;18.33;88.78
64997;SHT31;51545;51.568;6.998;2023-06-24T05:32:48;18.49;87.62
64997;SHT31;51545;51.568;6.998;2023-06-24T05:35:14;18.59;85.76
64997;SHT31;51545;51.568;6.998;2023-06-24T05:37:40;18.80;86.72
64997;SHT31;51545;51.568;6.998;2023-06-24T05:40:06;18.91;85.57
64997;SHT31;51545;51.568;6.998;2023-06-24T05:42:33;18.96;85.04
64997;SHT31;51545;51.568;6.998;2023-06-24T05:44:59;19.09;86.16
64997;SHT31;51545;51.568;6.998;2023-06-24T05:47:24;19.18;86.23
64997;SHT31;51545;51.568;6.998;2023-06-24T05:49:49;19.25;85.17
64997;SHT31;51545;51.568;6.998;2023-06-24T05:52:15;19.20;84.44
64997;SHT31;51545;51.568;6.998;2023-06-24T05:54:40;19.22;85.78
64997;SHT31;51545;51.568;6.998;2023-06-24T05:57:06;19.26;85.91
64997;SHT31;51545;51.568;6.998;2023-06-24T05:59:32;19.27;84.96
64997;SHT31;51545;51.568;6.998;2023-06-24T06:02:00;19.43;85.16
64997;SHT31;51545;51.568;6.998;2023-06-24T06:04:27;19.35;85.40
64997;SHT31;51545;51.568;6.998;2023-06-24T06:06:53;19.42;85.18
64997;SHT31;51545;51.568;6.998;2023-06-24T06:09:18;19.36;85.40
64997;SHT31;51545;51.568;6.998;2023-06-24T06:11:43;19.44;85.33
64997;SHT31;51545;51.568;6.998;2023-06-24T06:14:09;19.54;84.91
64997;SHT31;51545;51.568;6.998;2023-06-24T06:16:35;19.65;84.22
64997;SHT31;51545;51.568;6.998;2023-06-24T06:19:00;19.82;84.50
64997;SHT31;51545;51.568;6.998;2023-06-24T06:21:26;19.82;83.50
64997;SHT31;51545;51.568;6.998;2023-06-24T06:23:51;19.98;83.34
64997;SHT31;51545;51.568;6.998;2023-06-24T06:26:17;19.98;83.72
64997;SHT31;51545;51.568;6.998;2023-06-24T06:28:42;19.97;84.46
64997;SHT31;51545;51.568;6.998;2023-06-24T06:31:08;19.95;83.54
64997;SHT31;51545;51.568;6.998;2023-06-24T06:33:33;19.89;84.16
64997;SHT31;51545;51.568;6.998;2023-06-24T06:35:59;19.89;84.44
64997;SHT31;51545;51.568;6.998;2023-06-24T06:38:24;19.95;84.49
64997;SHT31;51545;51.568;6.998;2023-06-24T06:40:50;20.12;84.12
64997;SHT31;51545;51.568;6.998;2023-06-24T06:43:15;20.27;83.30
64997;SHT31;51545;51.568;6.998;2023-06-24T06:45:41;20.43;83.50
64997;SHT31;51545;51.568;6.998;2023-06-24T06:48:06;20.47;82.81
64997;SHT31;51545;51.568;6.998;2023-06-24T06:50:33;20.48;82.55
64997;SHT31;51545;51.568;6.998;2023-06-24T06:52:59;20.47;82.53
64997;SHT31;51545;51.568;6.998;2023-06-24T06:55:25;20.58;82.57
64997;SHT31;51545;51.568;6.998;2023-06-24T06:57:50;20.65;83.24
64997;SHT31;51545;51.568;6.998;2023-06-24T07:00:16;20.77;82.48
64997;SHT31;51545;51.568;6.998;2023-06-24T07:02:42;20.71;82.20
64997;SHT31;51545;51.568;6.998;2023-06-24T07:05:07;20.87;82.51
64997;SHT31;51545;51.568;6.998;2023-06-24T07:07:36;20.95;82.10
64997;SHT31;51545;51.568;6.998;2023-06-24T07:10:03;20.95;82.10
64997;SHT31;51545;51.568;6.998;2023-06-24T07:12:28;21.13;81.72
64997;SHT31;51545;51.568;6.998;2023-06-24T07:14:54;21.27;81.50
64997;SHT31;51545;51.568;6.998;2023-06-24T07:17:19;21.26;81.35
64997;SHT31;51545;51.568;6.998;2023-06-24T07:19:45;21.32;81.78
64997;SHT31;51545;51.568;6.998;2023-06-24T07:22:10;21.39;80.94
64997;SHT31;51545;51.568;6.998;2023-06-24T07:24:36;21.47;81.01
64997;SHT31;51545;51.568;6.998;2023-06-24T07:27:01;21.40;81.35
64997;SHT31;51545;51.568;6.998;2023-06-24T07:29:27;21.26;81.02
64997;SHT31;51545;51.568;6.998;2023-06-24T07:31:53;21.35;81.45
64997;SHT31;51545;51.568;6.998;2023-06-24T07:34:18;21.33;80.98
64997;SHT31;51545;51.568;6.998;2023-06-24T07:36:44;21.57;81.04
64997;SHT31;51545;51.568;6.998;2023-06-24T07:39:09;21.70;80.74
64997;SHT31;51545;51.568;6.998;2023-06-24T07:41:34;21.53;80.61
64997;SHT31;51545;51.568;6.998;2023-06-24T07:44:00;21.70;80.31
64997;SHT31;51545;51.568;6.998;2023-06-24T07:46:26;21.82;80.24
64997;SHT31;51545;51.568;6.998;2023-06-24T07:48:52;21.94;79.80
64997;SHT31;51545;51.568;6.998;2023-06-24T07:51:18;22.05;80.11
64997;SHT31;51545;51.568;6.998;2023-06-24T07:53:43;22.04;79.40
64997;SHT31;51545;51.568;6.998;2023-06-24T07:56:09;22.26;80.14
64997;SHT31;51545;51.568;6.998;2023-06-24T07:58:35;22.29;79.04
64997;SHT31;51545;51.568;6.998;2023-06-24T08:01:01;22.39;78.76
64997;SHT31;51545;51.568;6.998;2023-06-24T08:03:27;22.65;79.05
64997;SHT31;51545;51.568;6.998;2023-06-24T08:05:53;22.68;77.75
64997;SHT31;51545;51.568;6.998;2023-06-24T08:08:18;22.70;78.21
64997;SHT31;51545;51.568;6.998;2023-06-24T08:10:45;22.74;77.00
64997;SHT31;51545;51.568;6.998;2023-06-24T08:13:11;22.94;77.52
64997;SHT31;51545;51.568;6.998;2023-06-24T08:15:36;23.09;77.32
64997;SHT31;51545;51.568;6.998;2023-06-24T08:18:02;23.08;78.42
64997;SHT31;51545;51.568;6.998;2023-06-24T08:20:27;23.18;77.10
64997;SHT31;51545;51.568;6.998;2023-06-24T08:22:53;23.22;76.50
64997;SHT31;51545;51.568;6.998;2023-06-24T08:25:18;23.32;76.59
64997;SHT31;51545;51.568;6.998;2023-06-24T08:27:44;23.14;75.80
64997;SHT31;51545;51.568;6.998;2023-06-24T08:30:11;23.09;75.30
64997;SHT31;51545;51.568;6.998;2023-06-24T08:32:38;23.29;75.60
64997;SHT31;51545;51.568;6.998;2023-06-24T08:35:03;23.51;76.24
64997;SHT31;51545;51.568;6.998;2023-06-24T08:37:29;23.54;73.82
64997;SHT31;51545;51.568;6.998;2023-06-24T08:39:55;23.53;72.50
64997;SHT31;51545;51.568;6.998;2023-06-24T08:42:20;23.51;71.77
64997;SHT31;51545;51.568;6.998;2023-06-24T08:44:45;23.44;71.90
64997;SHT31;51545;51.568;6.998;2023-06-24T08:47:11;23.58;72.42
64997;SHT31;51545;51.568;6.998;2023-06-24T08:49:42;23.67;72.16
64997;SHT31;51545;51.568;6.998;2023-06-24T08:52:13;23.71;72.35
64997;SHT31;51545;51.568;6.998;2023-06-24T08:54:41;24.06;72.45
64997;SHT31;51545;51.568;6.998;2023-06-24T08:57:09;24.22;71.82
64997;SHT31;51545;51.568;6.998;2023-06-24T08:59:41;24.22;69.51
64997;SHT31;51545;51.568;6.998;2023-06-24T09:02:07;24.15;69.84
64997;SHT31;51545;51.568;6.998;2023-06-24T09:04:34;24.22;70.48
64997;SHT31;51545;51.568;6.998;2023-06-24T09:07:00;24.32;69.65
64997;SHT31;51545;51.568;6.998;2023-06-24T09:09:25;24.12;69.41
64997;SHT31;51545;51.568;6.998;2023-06-24T09:11:52;24.13;69.16
64997;SHT31;51545;51.568;6.998;2023-06-24T09:14:22;24.46;70.36
64997;SHT31;51545;51.568;6.998;2023-06-24T09:19:22;24.49;63.05
64997;SHT31;51545;51.568;6.998;2023-06-24T09:21:48;24.61;64.44
64997;SHT31;51545;51.568;6.998;2023-06-24T09:24:16;24.92;65.40
64997;SHT31;51545;51.568;6.998;2023-06-24T09:26:42;25.12;66.33
64997;SHT31;51545;51.568;6.998;2023-06-24T09:29:14;25.09;64.38
64997;SHT31;51545;51.568;6.998;2023-06-24T09:31:46;24.94;61.45
64997;SHT31;51545;51.568;6.998;2023-06-24T09:34:13;25.12;60.86
64997;SHT31;51545;51.568;6.998;2023-06-24T09:36:43;25.14;59.51
64997;SHT31;51545;51.568;6.998;2023-06-24T09:39:10;24.98;57.83
64997;SHT31;51545;51.568;6.998;2023-06-24T09:41:35;25.25;58.67
64997;SHT31;51545;51.568;6.998;2023-06-24T09:44:01;25.40;58.18
64997;SHT31;51545;51.568;6.998;2023-06-24T09:46:28;25.25;55.54
64997;SHT31;51545;51.568;6.998;2023-06-24T09:48:55;25.29;53.70
64997;SHT31;51545;51.568;6.998;2023-06-24T09:51:21;25.43;53.93
64997;SHT31;51545;51.568;6.998;2023-06-24T09:53:49;25.67;55.24
64997;SHT31;51545;51.568;6.998;2023-06-24T09:56:19;25.51;53.90
64997;SHT31;51545;51.568;6.998;2023-06-24T09:58:46;25.78;55.85
64997;SHT31;51545;51.568;6.998;2023-06-24T10:01:12;25.74;54.86
64997;SHT31;51545;51.568;6.998;2023-06-24T10:03:38;25.84;55.26
64997;SHT31;51545;51.568;6.998;2023-06-24T10:06:04;25.92;51.83
64997;SHT31;51545;51.568;6.998;2023-06-24T10:08:30;26.10;52.34
64997;SHT31;51545;51.568;6.998;2023-06-24T10:10:57;26.39;53.79
64997;SHT31;51545;51.568;6.998;2023-06-24T10:13:23;26.31;53.60
64997;SHT31;51545;51.568;6.998;2023-06-24T10:15:50;26.13;53.59
64997;SHT31;51545;51.568;6.998;2023-06-24T10:18:32;26.12;51.98
64997;SHT31;51545;51.568;6.998;2023-06-24T10:21:04;26.70;53.82
64997;SHT31;51545;51.568;6.998;2023-06-24T10:23:40;26.45;53.22
64997;SHT31;51545;51.568;6.998;2023-06-24T10:26:25;26.22;50.53
64997;SHT31;51545;51.568;6.998;2023-06-24T10:37:10;27.14;50.33
64997;SHT31;51545;51.568;6.998;2023-06-24T10:39:56;27.49;47.61
64997;SHT31;51545;51.568;6.998;2023-06-24T10:47:28;27.67;43.92
64997;SHT31;51545;51.568;6.998;2023-06-24T10:49:54;28.02;43.49
64997;SHT31;51545;51.568;6.998;2023-06-24T10:52:20;28.28;44.42
64997;SHT31;51545;51.568;6.998;2023-06-24T10:54:48;28.32;45.11
64997;SHT31;51545;51.568;6.998;2023-06-24T10:57:15;28.05;42.14
64997;SHT31;51545;51.568;6.998;2023-06-24T11:02:12;28.16;43.31
64997;SHT31;51545;51.568;6.998;2023-06-24T11:04:42;28.00;41.15
64997;SHT31;51545;51.568;6.998;2023-06-24T11:07:11;27.88;42.53
64997;SHT31;51545;51.568;6.998;2023-06-24T11:09:37;28.43;42.75
64997;SHT31;51545;51.568;6.998;2023-06-24T11:12:03;27.95;41.41
64997;SHT31;51545;51.568;6.998;2023-06-24T11:14:29;27.49;42.74
64997;SHT31;51545;51.568;6.998;2023-06-24T11:16:55;27.77;41.89
64997;SHT31;51545;51.568;6.998;2023-06-24T11:19:20;27.43;42.97
64997;SHT31;51545;51.568;6.998;2023-06-24T11:21:45;27.94;44.34
64997;SHT31;51545;51.568;6.998;2023-06-24T11:24:11;28.12;43.50
64997;SHT31;51545;51.568;6.998;2023-06-24T11:26:36;28.21;44.69
64997;SHT31;51545;51.568;6.998;2023-06-24T11:29:10;28.00;42.78
64997;SHT31;51545;51.568;6.998;2023-06-24T11:31:36;28.19;41.47
64997;SHT31;51545;51.568;6.998;2023-06-24T11:34:02;27.50;40.02
64997;SHT31;51545;51.568;6.998;2023-06-24T11:36:30;28.02;42.03
64997;SHT31;51545;51.568;6.998;2023-06-24T11:38:56;28.43;41.81
64997;SHT31;51545;51.568;6.998;2023-06-24T11:41:22;28.54;42.58
64997;SHT31;51545;51.568;6.998;2023-06-24T11:43:50;28.56;41.27
64997;SHT31;51545;51.568;6.998;2023-06-24T11:46:26;28.59;41.41
64997;SHT31;51545;51.568;6.998;2023-06-24T11:48:52;28.47;39.38
64997;SHT31;51545;51.568;6.998;2023-06-24T11:51:18;28.95;41.64
64997;SHT31;51545;51.568;6.998;2023-06-24T11:53:44;28.64;39.40
64997;SHT31;51545;51.568;6.998;2023-06-24T11:56:11;28.21;40.12
64997;SHT31;51545;51.568;6.998;2023-06-24T11:58:37;28.67;42.25
64997;SHT31;51545;51.568;6.998;2023-06-24T12:01:06;29.24;42.84
64997;SHT31;51545;51.568;6.998;2023-06-24T12:03:33;28.25;40.39
64997;SHT31;51545;51.568;6.998;2023-06-24T12:05:59;27.97;39.27
64997;SHT31;51545;51.568;6.998;2023-06-24T12:08:25;28.29;41.47
64997;SHT31;51545;51.568;6.998;2023-06-24T12:10:51;28.71;40.13
64997;SHT31;51545;51.568;6.998;2023-06-24T12:13:16;29.12;40.76
64997;SHT31;51545;51.568;6.998;2023-06-24T12:15:42;27.84;41.61
64997;SHT31;51545;51.568;6.998;2023-06-24T12:18:08;28.14;40.57
64997;SHT31;51545;51.568;6.998;2023-06-24T12:20:33;28.92;41.70
64997;SHT31;51545;51.568;6.998;2023-06-24T12:23:02;28.35;40.33
64997;SHT31;51545;51.568;6.998;2023-06-24T12:25:31;29.02;40.54
64997;SHT31;51545;51.568;6.998;2023-06-24T12:27:56;29.35;41.04
64997;SHT31;51545;51.568;6.998;2023-06-24T12:30:24;29.60;40.56
64997;SHT31;51545;51.568;6.998;2023-06-24T12:32:50;29.69;40.40
64997;SHT31;51545;51.568;6.998;2023-06-24T12:35:16;28.95;39.25
64997;SHT31;51545;51.568;6.998;2023-06-24T12:37:41;28.91;39.76
64997;SHT31;51545;51.568;6.998;2023-06-24T12:40:07;28.47;39.35
64997;SHT31;51545;51.568;6.998;2023-06-24T12:42:33;28.95;40.61
64997;SHT31;51545;51.568;6.998;2023-06-24T12:44:59;29.46;43.12
64997;SHT31;51545;51.568;6.998;2023-06-24T12:47:25;29.60;41.24
64997;SHT31;51545;51.568;6.998;2023-06-24T12:49:50;29.71;44.78
64997;SHT31;51545;51.568;6.998;2023-06-24T12:52:17;29.12;40.41
64997;SHT31;51545;51.568;6.998;2023-06-24T12:54:43;29.08;40.85
64997;SHT31;51545;51.568;6.998;2023-06-24T12:57:09;29.05;41.82
64997;SHT31;51545;51.568;6.998;2023-06-24T12:59:35;29.46;42.94
64997;SHT31;51545;51.568;6.998;2023-06-24T13:02:00;29.98;41.44
64997;SHT31;51545;51.568;6.998;2023-06-24T13:04:26;29.94;41.33
64997;SHT31;51545;51.568;6.998;2023-06-24T13:06:52;29.63;42.97
64997;SHT31;51545;51.568;6.998;2023-06-24T13:09:18;29.43;43.56
64997;SHT31;51545;51.568;6.998;2023-06-24T13:11:43;29.15;43.76
64997;SHT31;51545;51.568;6.998;2023-06-24T13:14:09;29.29;42.86
64997;SHT31;51545;51.568;6.998;2023-06-24T13:16:37;29.70;44.41
64997;SHT31;51545;51.568;6.998;2023-06-24T13:19:04;29.38;43.90
64997;SHT31;51545;51.568;6.998;2023-06-24T13:21:29;29.70;43.19
64997;SHT31;51545;51.568;6.998;2023-06-24T13:23:55;29.43;44.75
64997;SHT31;51545;51.568;6.998;2023-06-24T13:26:20;29.08;43.31
64997;SHT31;51545;51.568;6.998;2023-06-24T13:28:46;29.69;45.81
64997;SHT31;51545;51.568;6.998;2023-06-24T13:31:14;30.24;41.86
64997;SHT31;51545;51.568;6.998;2023-06-24T13:33:43;30.37;44.16
64997;SHT31;51545;51.568;6.998;2023-06-24T13:36:09;30.29;41.69
64997;SHT31;51545;51.568;6.998;2023-06-24T13:38:53;30.04;43.45
64997;SHT31;51545;51.568;6.998;2023-06-24T13:41:19;30.64;44.83
64997;SHT31;51545;51.568;6.998;2023-06-24T13:43:44;30.15;42.84
64997;SHT31;51545;51.568;6.998;2023-06-24T13:46:10;30.71;43.73
64997;SHT31;51545;51.568;6.998;2023-06-24T13:48:35;30.63;42.69
64997;SHT31;51545;51.568;6.998;2023-06-24T13:51:01;30.28;42.95
64997;SHT31;51545;51.568;6.998;2023-06-24T13:53:26;30.79;43.61
64997;SHT31;51545;51.568;6.998;2023-06-24T13:55:51;30.99;41.28
64997;SHT31;51545;51.568;6.998;2023-06-24T13:58:17;30.69;40.83
64997;SHT31;51545;51.568;6.998;2023-06-24T14:00:42;30.91;40.84
64997;SHT31;51545;51.568;6.998;2023-06-24T14:03:08;31.11;41.47
64997;SHT31;51545;51.568;6.998;2023-06-24T14:05:33;30.92;41.17
64997;SHT31;51545;51.568;6.998;2023-06-24T14:07:59;30.48;40.26
64997;SHT31;51545;51.568;6.998;2023-06-24T14:10:25;30.49;41.08
64997;SHT31;51545;51.568;6.998;2023-06-24T14:12:50;30.91;43.39
64997;SHT31;51545;51.568;6.998;2023-06-24T14:15:16;30.77;41.50
64997;SHT31;51545;51.568;6.998;2023-06-24T14:17:41;30.48;41.73
64997;SHT31;51545;51.568;6.998;2023-06-24T14:20:07;30.24;41.85
64997;SHT31;51545;51.568;6.998;2023-06-24T14:22:33;30.94;43.60
64997;SHT31;51545;51.568;6.998;2023-06-24T14:24:58;30.76;39.35
64997;SHT31;51545;51.568;6.998;2023-06-24T14:27:24;30.64;40.09
64997;SHT31;51545;51.568;6.998;2023-06-24T14:29:49;30.18;39.71
64997;SHT31;51545;51.568;6.998;2023-06-24T14:32:14;30.67;42.86
64997;SHT31;51545;51.568;6.998;2023-06-24T14:34:40;30.71;38.68
64997;SHT31;51545;51.568;6.998;2023-06-24T14:37:05;31.08;41.96
64997;SHT31;51545;51.568;6.998;2023-06-24T14:39:31;31.42;41.76
64997;SHT31;51545;51.568;6.998;2023-06-24T14:41:56;31.31;42.39
64997;SHT31;51545;51.568;6.998;2023-06-24T14:44:22;31.21;41.30
64997;SHT31;51545;51.568;6.998;2023-06-24T14:46:47;30.60;39.48
64997;SHT31;51545;51.568;6.998;2023-06-24T14:49:13;30.94;40.35
64997;SHT31;51545;51.568;6.998;2023-06-24T14:51:38;30.60;39.43
64997;SHT31;51545;51.568;6.998;2023-06-24T14:54:04;30.87;41.11
64997;SHT31;51545;51.568;6.998;2023-06-24T14:56:29;30.88;40.13
64997;SHT31;51545;51.568;6.998;2023-06-24T14:58:54;31.03;39.34
64997;SHT31;51545;51.568;6.998;2023-06-24T15:01:20;30.52;37.98
64997;SHT31;51545;51.568;6.998;2023-06-24T15:03:45;30.98;40.99
64997;SHT31;51545;51.568;6.998;2023-06-24T15:06:11;30.94;35.90
64997;SHT31;51545;51.568;6.998;2023-06-24T15:08:36;30.86;40.99
64997;SHT31;51545;51.568;6.998;2023-06-24T15:11:02;31.21;38.04
64997;SHT31;51545;51.568;6.998;2023-06-24T15:13:27;31.11;38.33
64997;SHT31;51545;51.568;6.998;2023-06-24T15:15:53;30.84;39.22
64997;SHT31;51545;51.568;6.998;2023-06-24T15:18:21;31.35;40.81
64997;SHT31;51545;51.568;6.998;2023-06-24T15:20:47;31.60;38.87
64997;SHT31;51545;51.568;6.998;2023-06-24T15:23:12;30.99;36.64
64997;SHT31;51545;51.568;6.998;2023-06-24T15:25:38;31.17;40.33
64997;SHT31;51545;51.568;6.998;2023-06-24T15:28:03;31.58;39.30
64997;SHT31;51545;51.568;6.998;2023-06-24T15:30:29;31.66;39.90
64997;SHT31;51545;51.568;6.998;2023-06-24T15:32:54;30.64;35.90
64997;SHT31;51545;51.568;6.998;2023-06-24T15:35:19;31.05;38.28
64997;SHT31;51545;51.568;6.998;2023-06-24T15:37:45;31.74;38.60
64997;SHT31;51545;51.568;6.998;2023-06-24T15:40:10;31.70;40.10
64997;SHT31;51545;51.568;6.998;2023-06-24T15:42:36;31.60;38.68
64997;SHT31;51545;51.568;6.998;2023-06-24T15:45:03;31.43;38.36
64997;SHT31;51545;51.568;6.998;2023-06-24T15:47:29;31.53;37.37
64997;SHT31;51545;51.568;6.998;2023-06-24T15:49:55;32.41;39.67
64997;SHT31;51545;51.568;6.998;2023-06-24T15:52:20;32.65;37.97